createdAt,value
2022-09-09T00:00:18.567Z,9
2022-09-09T00:05:19.000Z,8
2022-09-09T00:10:18.581Z,6
2022-09-09T00:15:18.584Z,6
2022-09-09T00:20:15.587Z,6
2022-09-09T00:25:15.454Z,5
2022-09-09T00:30:18.585Z,6
2022-09-09T00:35:18.593Z,7
2022-09-09T00:40:19.119Z,6
2022-09-09T00:45:15.648Z,5
2022-09-09T00:50:15.607Z,6
2022-09-09T00:55:15.669Z,8
2022-09-09T01:00:18.615Z,5
2022-09-09T01:05:15.629Z,6
2022-09-09T01:10:18.647Z,5
2022-09-09T01:15:19.052Z,6
2022-09-09T01:20:18.605Z,6
2022-09-09T01:25:15.655Z,5
2022-09-09T01:30:18.634Z,6
2022-09-09T01:35:18.578Z,6
2022-09-09T01:40:15.566Z,9
2022-09-09T01:45:15.726Z,5
2022-09-09T01:50:16.080Z,4
2022-09-09T01:55:15.691Z,4
2022-09-09T02:00:15.645Z,4
2022-09-09T02:05:18.649Z,5
2022-09-09T02:10:18.688Z,5
2022-09-09T02:15:18.609Z,4
2022-09-09T02:20:19.035Z,5
2022-09-09T02:25:15.723Z,4
2022-09-09T02:30:15.666Z,4
2022-09-09T02:35:18.622Z,4
2022-09-09T02:40:18.783Z,4
2022-09-09T02:45:18.640Z,5
2022-09-09T02:50:15.710Z,5
2022-09-09T02:55:16.009Z,5
2022-09-09T03:00:15.649Z,6
2022-09-09T03:05:18.642Z,5
2022-09-09T03:10:18.726Z,6
2022-09-09T03:15:15.736Z,4
2022-09-09T03:20:15.713Z,3
2022-09-09T03:25:19.117Z,5
2022-09-09T03:30:18.732Z,4
2022-09-09T03:35:18.646Z,6
2022-09-09T03:40:18.730Z,3
2022-09-09T03:45:18.685Z,3
2022-09-09T03:50:15.715Z,2
2022-09-09T03:55:18.677Z,2
2022-09-09T04:00:20.341Z,2
2022-09-09T04:05:19.986Z,2
2022-09-09T04:10:17.012Z,3
2022-09-09T04:15:16.949Z,3
2022-09-09T04:20:16.969Z,3
2022-09-09T04:25:19.948Z,4
2022-09-09T04:30:19.962Z,4
2022-09-09T04:35:17.257Z,4
2022-09-09T04:40:17.070Z,4
2022-09-09T04:45:19.959Z,3
2022-09-09T04:50:19.933Z,3
2022-09-09T04:55:19.948Z,3
2022-09-09T05:00:19.945Z,2
2022-09-09T05:05:17.026Z,3
2022-09-09T05:10:17.315Z,3
2022-09-09T05:15:17.009Z,2
2022-09-09T05:20:19.978Z,2
2022-09-09T05:25:19.957Z,2
2022-09-09T05:30:20.005Z,3
2022-09-09T05:35:19.947Z,3
2022-09-09T05:40:20.432Z,3
2022-09-09T05:45:16.971Z,2
2022-09-09T05:50:17.033Z,1
2022-09-09T05:55:20.008Z,1
2022-09-09T06:00:19.981Z,1
2022-09-09T06:05:19.975Z,2
2022-09-09T06:10:17.004Z,1
2022-09-09T06:15:17.326Z,1
2022-09-09T06:20:19.987Z,2
2022-09-09T06:25:19.966Z,3
2022-09-09T06:30:19.964Z,2
2022-09-09T06:35:20.018Z,3
2022-09-09T06:40:20.065Z,3
2022-09-09T06:45:17.010Z,2
2022-09-09T06:50:20.394Z,3
2022-09-09T06:55:20.004Z,3
2022-09-09T07:00:19.967Z,3
2022-09-09T07:05:20.021Z,4
2022-09-09T07:10:17.028Z,4
2022-09-09T07:15:17.034Z,5
2022-09-09T07:20:16.875Z,3
2022-09-09T07:25:20.490Z,5
2022-09-09T07:30:24.346Z,3
2022-09-09T07:35:20.023Z,3
2022-09-09T07:40:17.083Z,3
2022-09-09T07:45:20.008Z,3
2022-09-09T07:50:20.040Z,3
2022-09-09T07:55:19.996Z,3
2022-09-09T08:00:17.471Z,2
2022-09-09T08:05:20.045Z,4
2022-09-09T08:10:20.122Z,4
2022-09-09T08:15:20.058Z,5
2022-09-09T08:20:17.082Z,3
2022-09-09T08:25:17.058Z,4
2022-09-09T08:30:20.482Z,3
2022-09-09T08:35:20.009Z,4
2022-09-09T08:40:17.130Z,3
2022-09-09T08:45:17.112Z,4
2022-09-09T08:50:16.902Z,2
2022-09-09T08:55:20.040Z,2
2022-09-09T09:00:20.065Z,3
2022-09-09T09:05:20.385Z,3
2022-09-09T09:10:40.069Z,3
2022-09-09T09:15:20.041Z,2
2022-09-09T09:20:17.047Z,4
2022-09-09T09:25:20.081Z,4
2022-09-09T09:30:30.055Z,4
2022-09-09T09:35:20.083Z,4
2022-09-09T09:40:20.518Z,5
2022-09-09T09:45:20.040Z,2
2022-09-09T09:50:17.118Z,3
2022-09-09T09:55:20.071Z,3
2022-09-09T10:00:20.157Z,3
2022-09-09T10:05:25.770Z,5
2022-09-09T10:10:17.124Z,4
2022-09-09T10:15:17.544Z,4
2022-09-09T10:20:20.054Z,3
2022-09-09T10:25:20.090Z,2
2022-09-09T10:30:17.103Z,6
2022-09-09T10:35:20.072Z,4
2022-09-09T10:40:20.202Z,4
2022-09-09T10:45:20.413Z,2
2022-09-09T10:50:17.161Z,6
2022-09-09T10:55:20.116Z,4
2022-09-09T11:00:20.131Z,3
2022-09-09T11:05:20.088Z,4
2022-09-09T11:10:17.116Z,5
2022-09-09T11:15:17.020Z,5
2022-09-09T11:20:20.593Z,3
2022-09-09T11:25:20.131Z,4
2022-09-09T11:30:27.481Z,4
2022-09-09T11:35:20.114Z,2
2022-09-09T11:40:20.110Z,2
2022-09-09T11:45:20.100Z,2
2022-09-09T11:50:20.088Z,2
2022-09-09T11:55:17.462Z,2
2022-09-09T12:00:20.129Z,3
2022-09-09T12:05:17.212Z,2
2022-09-09T12:10:20.111Z,1
2022-09-09T12:15:20.130Z,2
2022-09-09T12:20:20.128Z,3
2022-09-09T12:25:21.377Z,3
2022-09-09T12:30:20.583Z,3
2022-09-09T12:35:17.187Z,3
2022-09-09T12:40:17.261Z,2
2022-09-09T12:45:17.255Z,3
2022-09-09T12:50:20.188Z,4
2022-09-09T12:55:20.147Z,4
2022-09-09T13:00:17.152Z,4
2022-09-09T13:05:20.584Z,6
2022-09-09T13:10:25.781Z,6
2022-09-09T13:15:17.194Z,5
2022-09-09T13:20:17.203Z,7
2022-09-09T13:25:20.219Z,5
2022-09-09T13:30:20.219Z,5
2022-09-09T13:35:20.167Z,5
2022-09-09T13:40:17.587Z,5
2022-09-09T13:45:20.172Z,5
2022-09-09T13:50:20.212Z,4
2022-09-09T13:55:20.151Z,5
2022-09-09T14:00:17.200Z,5
2022-09-09T14:05:20.208Z,5
2022-09-09T14:10:20.601Z,3
2022-09-09T14:15:20.174Z,5
2022-09-09T14:20:17.229Z,5
2022-09-09T14:25:20.210Z,4
2022-09-09T14:30:20.260Z,5
2022-09-09T14:35:17.231Z,6
2022-09-09T14:40:17.289Z,5
2022-09-09T14:45:20.629Z,4
2022-09-09T14:50:20.470Z,3
2022-09-09T14:55:17.219Z,4
2022-09-09T15:00:20.245Z,4
2022-09-09T15:05:20.191Z,4
2022-09-09T15:10:20.184Z,2
2022-09-09T15:15:17.244Z,3
2022-09-09T15:20:17.557Z,4
2022-09-09T15:25:20.235Z,4
2022-09-09T15:30:20.305Z,5
2022-09-09T15:35:17.251Z,7
2022-09-09T15:40:20.341Z,5
2022-09-09T15:45:20.216Z,4
2022-09-09T15:50:20.634Z,7
2022-09-09T15:55:17.247Z,8
2022-09-09T16:00:20.205Z,7
2022-09-09T16:05:20.222Z,11
2022-09-09T16:10:20.247Z,10
2022-09-09T16:15:17.259Z,8
2022-09-09T16:20:20.265Z,8
2022-09-09T16:25:20.771Z,7
2022-09-09T16:30:20.243Z,7
2022-09-09T16:35:17.246Z,11
2022-09-09T16:40:20.320Z,7
2022-09-09T16:45:20.248Z,9
2022-09-09T16:50:17.271Z,9
2022-09-09T16:55:17.256Z,11
2022-09-09T17:00:20.683Z,9
2022-09-09T17:05:20.229Z,8
2022-09-09T17:10:17.317Z,8
2022-09-09T17:15:20.230Z,8
2022-09-09T17:20:20.246Z,10
2022-09-09T17:25:17.281Z,9
2022-09-09T17:30:17.267Z,9
2022-09-09T17:35:20.799Z,12
2022-09-09T17:40:20.344Z,12
2022-09-09T17:45:17.256Z,6
2022-09-09T17:50:20.247Z,11
2022-09-09T17:55:20.280Z,12
2022-09-09T18:00:20.257Z,8
2022-09-09T18:05:17.301Z,8
2022-09-09T18:10:17.738Z,9
2022-09-09T18:15:33.332Z,11
2022-09-09T18:20:20.271Z,11
2022-09-09T18:25:20.299Z,11
2022-09-09T18:30:17.286Z,9
2022-09-09T18:35:20.296Z,12
2022-09-09T18:40:20.718Z,9
2022-09-09T18:45:20.308Z,9
2022-09-09T18:50:17.328Z,8
2022-09-09T18:55:20.293Z,13
2022-09-09T19:00:20.301Z,9
2022-09-09T19:05:20.305Z,11
2022-09-09T19:10:20.281Z,12
2022-09-09T19:15:20.718Z,8
2022-09-09T19:20:20.311Z,7
2022-09-09T19:25:17.317Z,8
2022-09-09T19:30:20.374Z,8
2022-09-09T19:35:20.287Z,8
2022-09-09T19:40:17.309Z,8
2022-09-09T19:45:20.326Z,7
2022-09-09T19:50:20.733Z,7
2022-09-09T19:55:20.341Z,7
2022-09-09T20:00:20.320Z,7
2022-09-09T20:05:17.315Z,6
2022-09-09T20:10:20.311Z,8
2022-09-09T20:15:20.314Z,6
2022-09-09T20:20:20.322Z,7
2022-09-09T20:25:17.682Z,7
2022-09-09T20:30:18.290Z,7
2022-09-09T20:35:18.296Z,7
2022-09-09T20:40:18.339Z,7
2022-09-09T20:45:15.365Z,8
2022-09-09T20:50:20.366Z,6
2022-09-09T20:55:18.763Z,5
2022-09-09T21:00:18.321Z,4
2022-09-09T21:05:15.426Z,7
2022-09-09T21:10:18.333Z,8
2022-09-09T21:15:18.338Z,6
2022-09-09T21:20:18.344Z,6
2022-09-09T21:25:15.410Z,5
2022-09-09T21:30:15.667Z,6
2022-09-09T21:35:18.356Z,5
2022-09-09T21:40:18.369Z,6
2022-09-09T21:45:18.356Z,6
2022-09-09T21:50:15.410Z,6
2022-09-09T21:55:18.350Z,7
2022-09-09T22:00:18.770Z,6
2022-09-09T22:05:18.351Z,4
2022-09-09T22:10:15.359Z,6
2022-09-09T22:15:18.362Z,6
2022-09-09T22:20:18.397Z,4
2022-09-09T22:25:15.432Z,5
2022-09-09T22:30:15.402Z,6
2022-09-09T22:35:18.877Z,5
2022-09-09T22:40:18.363Z,4
2022-09-09T22:45:18.360Z,5
2022-09-09T22:50:18.368Z,4
2022-09-09T22:55:18.392Z,2
2022-09-09T23:00:18.379Z,5
2022-09-09T23:05:15.408Z,3
2022-09-09T23:10:15.819Z,3
2022-09-09T23:15:18.398Z,2
2022-09-09T23:20:18.430Z,2
2022-09-09T23:25:15.452Z,2
2022-09-09T23:30:18.369Z,1
2022-09-09T23:35:18.395Z,1
2022-09-09T23:40:18.833Z,1
2022-09-09T23:45:18.413Z,2
2022-09-09T23:50:15.436Z,2
2022-09-09T23:55:18.399Z,1
